createdAt,value
2022-09-04T00:00:52.780Z,15.60
2022-09-04T00:03:39.503Z,15.50
2022-09-04T00:06:13.502Z,15.50
2022-09-04T00:09:01.562Z,15.50
2022-09-04T00:11:38.008Z,15.40
2022-09-04T00:14:13.446Z,15.40
2022-09-04T00:17:02.857Z,15.40
2022-09-04T00:19:43.707Z,15.30
2022-09-04T00:22:25.286Z,15.30
2022-09-04T00:25:07.987Z,15.20
2022-09-04T00:27:44.274Z,15.20
2022-09-04T00:30:20.325Z,15.30
2022-09-04T00:33:03.851Z,15.30
2022-09-04T00:35:37.840Z,15.20
2022-09-04T00:38:14.348Z,15.10
2022-09-04T00:40:51.185Z,15.10
2022-09-04T00:43:29.455Z,15.00
2022-09-04T00:46:20.246Z,15.00
2022-09-04T00:49:19.564Z,15.00
2022-09-04T00:52:04.911Z,15.00
2022-09-04T00:54:53.389Z,15.00
2022-09-04T00:57:29.230Z,15.00
2022-09-04T01:00:19.736Z,14.90
2022-09-04T01:03:12.769Z,14.90
2022-09-04T01:06:04.021Z,14.90
2022-09-04T01:09:01.843Z,14.80
2022-09-04T01:11:47.886Z,14.70
2022-09-04T01:14:29.563Z,14.70
2022-09-04T01:17:09.232Z,14.70
2022-09-04T01:20:06.950Z,14.70
2022-09-04T01:22:51.070Z,14.70
2022-09-04T01:25:57.383Z,14.60
2022-09-04T01:28:35.326Z,14.60
2022-09-04T01:31:15.277Z,14.70
2022-09-04T01:33:55.599Z,14.70
2022-09-04T01:36:48.844Z,14.70
2022-09-04T01:39:20.699Z,14.60
2022-09-04T01:41:58.649Z,14.60
2022-09-04T01:44:26.909Z,14.60
2022-09-04T01:47:26.074Z,14.50
2022-09-04T01:50:07.959Z,14.50
2022-09-04T01:52:58.946Z,14.50
2022-09-04T01:55:50.814Z,14.50
2022-09-04T01:58:35.317Z,14.50
2022-09-04T02:01:11.036Z,14.50
2022-09-04T02:04:13.008Z,14.50
2022-09-04T02:07:19.733Z,14.50
2022-09-04T02:10:07.924Z,14.50
2022-09-04T02:12:58.251Z,14.50
2022-09-04T02:15:43.800Z,14.40
2022-09-04T02:18:19.752Z,14.30
2022-09-04T02:21:28.052Z,14.30
2022-09-04T02:24:21.064Z,14.30
2022-09-04T02:27:00.405Z,14.20
2022-09-04T02:29:46.635Z,14.20
2022-09-04T02:32:21.421Z,14.20
2022-09-04T02:35:08.810Z,14.20
2022-09-04T02:37:44.168Z,14.10
2022-09-04T02:40:26.075Z,14.10
2022-09-04T02:43:39.589Z,14.10
2022-09-04T02:46:43.225Z,14.00
2022-09-04T02:49:16.151Z,14.00
2022-09-04T02:52:07.029Z,14.00
2022-09-04T02:55:01.163Z,14.00
2022-09-04T02:57:39.456Z,14.00
2022-09-04T03:00:18.269Z,14.10
2022-09-04T03:03:20.872Z,14.00
2022-09-04T03:05:58.320Z,14.00
2022-09-04T03:08:48.810Z,14.00
2022-09-04T03:11:38.923Z,14.00
2022-09-04T03:14:20.827Z,13.90
2022-09-04T03:17:06.375Z,14.00
2022-09-04T03:19:50.696Z,14.00
2022-09-04T03:23:00.573Z,13.90
2022-09-04T03:26:04.769Z,13.90
2022-09-04T03:29:12.144Z,13.80
2022-09-04T03:32:15.127Z,13.80
2022-09-04T03:34:52.239Z,13.80
2022-09-04T03:37:31.111Z,13.80
2022-09-04T03:40:00.786Z,13.80
2022-09-04T03:43:04.400Z,13.80
2022-09-04T03:45:57.320Z,13.80
2022-09-04T03:48:46.690Z,13.70
2022-09-04T03:51:41.113Z,13.70
2022-09-04T03:54:10.501Z,13.70
2022-09-04T03:56:55.064Z,13.70
2022-09-04T03:59:38.050Z,13.60
2022-09-04T04:02:33.129Z,13.60
2022-09-04T04:05:23.026Z,13.70
2022-09-04T04:08:27.437Z,13.70
2022-09-04T04:11:12.228Z,13.60
2022-09-04T04:14:03.294Z,13.50
2022-09-04T04:17:00.110Z,13.50
2022-09-04T04:20:11.925Z,13.50
2022-09-04T04:23:08.425Z,13.50
2022-09-04T04:25:52.291Z,13.50
2022-09-04T04:28:28.753Z,13.50
2022-09-04T04:31:23.437Z,13.50
2022-09-04T04:34:13.360Z,13.50
2022-09-04T04:36:51.346Z,13.40
2022-09-04T04:39:41.491Z,13.50
2022-09-04T04:42:38.739Z,13.50
2022-09-04T04:45:47.922Z,13.40
2022-09-04T04:48:36.713Z,13.40
2022-09-04T04:51:38.201Z,13.40
2022-09-04T04:54:23.965Z,13.30
2022-09-04T04:57:02.080Z,13.30
2022-09-04T04:59:54.315Z,13.20
2022-09-04T05:02:39.462Z,13.20
2022-09-04T05:05:18.618Z,13.30
2022-09-04T05:08:03.882Z,13.30
2022-09-04T05:10:45.500Z,13.40
2022-09-04T05:13:24.131Z,13.50
2022-09-04T05:16:20.804Z,13.50
2022-09-04T05:19:00.241Z,13.50
2022-09-04T05:21:55.899Z,13.60
2022-09-04T05:24:50.297Z,13.50
2022-09-04T05:27:22.413Z,13.60
2022-09-04T05:30:10.562Z,13.50
2022-09-04T05:32:59.161Z,13.60
2022-09-04T05:35:49.584Z,13.70
2022-09-04T05:38:33.863Z,13.70
2022-09-04T05:41:07.886Z,13.80
2022-09-04T05:43:44.210Z,13.90
2022-09-04T05:46:51.928Z,14.00
2022-09-04T05:49:24.481Z,14.00
2022-09-04T05:52:22.586Z,14.10
2022-09-04T05:55:01.265Z,14.20
2022-09-04T05:58:06.135Z,14.30
2022-09-04T06:01:18.700Z,14.40
2022-09-04T06:04:17.887Z,14.50
2022-09-04T06:07:03.477Z,14.70
2022-09-04T06:09:46.356Z,14.80
2022-09-04T06:12:43.990Z,14.80
2022-09-04T06:15:46.319Z,14.80
2022-09-04T06:18:28.131Z,14.90
2022-09-04T06:21:08.834Z,15.00
2022-09-04T06:23:58.409Z,15.00
2022-09-04T06:26:28.653Z,15.10
2022-09-04T06:29:15.119Z,15.20
2022-09-04T06:31:49.416Z,15.30
2022-09-04T06:34:22.877Z,15.40
2022-09-04T06:37:18.906Z,15.50
2022-09-04T06:40:00.812Z,15.60
2022-09-04T06:42:55.352Z,15.60
2022-09-04T06:45:42.112Z,15.80
2022-09-04T06:48:30.606Z,15.80
2022-09-04T06:51:08.043Z,15.90
2022-09-04T06:54:02.752Z,16.00
2022-09-04T06:56:38.822Z,16.10
2022-09-04T06:59:14.921Z,16.20
2022-09-04T07:02:03.881Z,16.20
2022-09-04T07:04:43.320Z,16.40
2022-09-04T07:07:44.966Z,16.50
2022-09-04T07:10:21.515Z,16.50
2022-09-04T07:13:15.521Z,16.60
2022-09-04T07:16:00.679Z,16.70
2022-09-04T07:18:50.107Z,16.80
2022-09-04T07:21:39.219Z,17.00
2022-09-04T07:24:11.329Z,17.10
2022-09-04T07:26:56.966Z,17.10
2022-09-04T07:30:09.401Z,17.10
2022-09-04T07:32:43.376Z,17.30
2022-09-04T07:35:16.921Z,17.40
2022-09-04T07:37:50.030Z,17.50
2022-09-04T07:40:51.093Z,17.40
2022-09-04T07:43:39.766Z,17.50
2022-09-04T07:46:19.596Z,17.80
2022-09-04T07:49:15.691Z,17.80
2022-09-04T07:51:56.980Z,18.00
2022-09-04T07:54:35.916Z,18.20
2022-09-04T07:57:25.390Z,17.90
2022-09-04T08:00:13.613Z,18.10
2022-09-04T08:02:51.383Z,18.40
2022-09-04T08:05:23.084Z,18.70
2022-09-04T08:08:26.422Z,18.90
2022-09-04T08:11:02.394Z,19.10
2022-09-04T08:13:56.819Z,19.30
2022-09-04T08:16:39.287Z,19.40
2022-09-04T08:19:06.854Z,19.40
2022-09-04T08:21:40.074Z,19.50
2022-09-04T08:24:34.999Z,19.70
2022-09-04T08:32:38.639Z,20.30
2022-09-04T08:35:33.258Z,20.30
2022-09-04T08:38:14.543Z,20.40
2022-09-04T08:41:06.787Z,20.50
2022-09-04T08:43:57.306Z,20.60
2022-09-04T08:46:49.452Z,20.80
2022-09-04T08:49:30.728Z,20.90
2022-09-04T08:52:14.548Z,21.00
2022-09-04T08:55:05.715Z,21.20
2022-09-04T08:57:47.534Z,21.30
2022-09-04T09:00:21.288Z,21.40
2022-09-04T09:02:59.770Z,21.40
2022-09-04T09:06:09.069Z,21.30
2022-09-04T09:08:56.478Z,21.20
2022-09-04T09:11:45.723Z,21.30
2022-09-04T09:14:50.045Z,21.60
2022-09-04T09:17:39.859Z,21.60
2022-09-04T09:20:40.909Z,21.70
2022-09-04T09:23:31.664Z,21.80
2022-09-04T09:26:20.073Z,22.00
2022-09-04T09:29:24.944Z,22.20
2022-09-04T09:32:12.744Z,22.20
2022-09-04T09:35:30.871Z,22.10
2022-09-04T09:38:36.367Z,22.20
2022-09-04T09:41:20.194Z,22.40
2022-09-04T09:44:02.837Z,22.40
2022-09-04T09:47:07.727Z,22.60
2022-09-04T09:50:16.281Z,22.40
2022-09-04T09:53:01.098Z,22.50
2022-09-04T09:55:52.901Z,22.70
2022-09-04T09:58:34.525Z,22.90
2022-09-04T10:01:20.101Z,23.00
2022-09-04T10:04:27.385Z,23.10
2022-09-04T10:07:23.131Z,23.50
2022-09-04T10:09:52.448Z,23.90
2022-09-04T10:12:38.110Z,23.60
2022-09-04T10:15:32.529Z,23.20
2022-09-04T10:18:42.159Z,22.80
2022-09-04T10:21:51.667Z,22.50
2022-09-04T10:24:35.720Z,22.10
2022-09-04T10:27:31.011Z,21.90
2022-09-04T10:30:23.534Z,22.00
2022-09-04T10:33:27.463Z,22.40
2022-09-04T10:36:00.687Z,22.80
2022-09-04T10:38:37.717Z,22.90
2022-09-04T10:41:29.274Z,23.20
2022-09-04T10:44:17.369Z,23.50
2022-09-04T10:47:01.145Z,23.50
2022-09-04T10:50:03.801Z,23.60
2022-09-04T10:52:33.342Z,23.60
2022-09-04T10:55:05.591Z,23.90
2022-09-04T10:57:38.372Z,23.70
2022-09-04T11:00:15.607Z,23.60
2022-09-04T11:03:04.324Z,23.50
2022-09-04T11:05:45.322Z,23.60
2022-09-04T11:08:42.230Z,23.60
2022-09-04T11:11:17.342Z,24.00
2022-09-04T11:14:28.231Z,24.20
2022-09-04T11:17:21.767Z,24.60
2022-09-04T11:20:18.414Z,25.00
2022-09-04T11:23:10.684Z,25.30
2022-09-04T11:26:05.840Z,25.30
2022-09-04T11:29:09.268Z,25.00
2022-09-04T11:32:13.706Z,25.10
2022-09-04T11:35:15.404Z,25.60
2022-09-04T11:37:58.837Z,25.80
2022-09-04T11:40:58.093Z,25.70
2022-09-04T11:43:55.279Z,26.00
2022-09-04T11:49:09.664Z,26.10
2022-09-04T11:51:50.983Z,25.70
2022-09-04T11:54:36.398Z,25.00
2022-09-04T11:57:29.928Z,24.30
2022-09-04T12:00:02.255Z,24.20
2022-09-04T12:02:38.258Z,24.10
2022-09-04T12:05:19.050Z,24.10
2022-09-04T12:07:59.248Z,24.30
2022-09-04T12:10:52.759Z,24.50
2022-09-04T12:13:52.570Z,24.20
2022-09-04T12:16:42.236Z,23.80
2022-09-04T12:19:43.256Z,23.70
2022-09-04T12:22:26.081Z,23.90
2022-09-04T12:25:12.255Z,24.70
2022-09-04T12:28:09.676Z,25.30
2022-09-04T12:30:49.326Z,25.10
2022-09-04T12:33:42.734Z,24.60
2022-09-04T12:36:24.733Z,24.10
2022-09-04T12:39:42.904Z,23.90
2022-09-04T12:42:26.867Z,23.80
2022-09-04T12:45:31.014Z,23.80
2022-09-04T12:48:16.349Z,24.00
2022-09-04T12:51:12.253Z,24.50
2022-09-04T12:53:48.207Z,24.80
2022-09-04T12:56:36.455Z,25.40
2022-09-04T12:59:23.362Z,25.80
2022-09-04T13:02:01.503Z,25.70
2022-09-04T13:04:55.713Z,25.80
2022-09-04T13:07:48.375Z,26.10
2022-09-04T13:10:33.960Z,26.40
2022-09-04T13:13:00.518Z,26.90
2022-09-04T13:15:37.721Z,26.90
2022-09-04T13:18:34.772Z,26.80
2022-09-04T13:21:39.299Z,26.70
2022-09-04T13:24:19.497Z,26.60
2022-09-04T13:27:15.733Z,26.80
2022-09-04T13:30:22.121Z,26.40
2022-09-04T13:33:03.653Z,25.90
2022-09-04T13:35:50.067Z,26.00
2022-09-04T13:38:46.038Z,26.30
2022-09-04T13:41:37.366Z,26.60
2022-09-04T13:44:31.840Z,26.90
2022-09-04T13:47:06.977Z,26.90
2022-09-04T13:49:58.198Z,27.20
2022-09-04T13:57:41.667Z,27.00
2022-09-04T14:00:11.899Z,27.20
2022-09-04T14:02:39.196Z,27.30
2022-09-04T14:05:18.036Z,27.30
2022-09-04T14:07:49.100Z,27.50
2022-09-04T14:10:25.658Z,27.60
2022-09-04T14:13:25.513Z,27.90
2022-09-04T14:16:02.472Z,28.20
2022-09-04T14:19:15.656Z,28.10
2022-09-04T14:22:05.038Z,27.70
2022-09-04T14:24:46.603Z,27.10
2022-09-04T14:27:28.053Z,27.00
2022-09-04T14:30:03.404Z,27.20
2022-09-04T14:33:05.020Z,27.10
2022-09-04T14:36:07.131Z,26.80
2022-09-04T14:38:54.289Z,26.70
2022-09-04T14:41:43.020Z,26.90
2022-09-04T14:44:35.756Z,27.10
2022-09-04T14:47:09.488Z,27.40
2022-09-04T14:52:27.703Z,27.50
2022-09-04T14:55:00.166Z,27.30
2022-09-04T14:57:26.726Z,27.20
2022-09-04T15:00:04.822Z,27.30
2022-09-04T15:02:43.439Z,27.00
2022-09-04T15:05:26.497Z,27.10
2022-09-04T15:08:07.490Z,27.30
2022-09-04T15:11:00.516Z,27.40
2022-09-04T15:13:47.092Z,27.30
2022-09-04T15:16:20.925Z,27.30
2022-09-04T15:18:53.506Z,27.20
2022-09-04T15:21:43.089Z,27.30
2022-09-04T15:24:14.110Z,27.10
2022-09-04T15:26:51.749Z,27.20
2022-09-04T15:29:27.433Z,26.60
2022-09-04T15:32:00.891Z,26.70
2022-09-04T15:34:28.628Z,27.00
2022-09-04T15:37:10.164Z,26.90
2022-09-04T15:39:45.441Z,26.40
2022-09-04T15:42:13.258Z,26.70
2022-09-04T15:44:44.399Z,26.70
2022-09-04T15:47:23.264Z,26.70
2022-09-04T15:49:55.434Z,26.80
2022-09-04T15:52:46.187Z,26.90
2022-09-04T15:55:34.336Z,26.80
2022-09-04T15:58:31.955Z,26.50
2022-09-04T16:01:14.423Z,26.40
2022-09-04T16:04:02.488Z,26.30
2022-09-04T16:06:32.155Z,26.30
2022-09-04T16:09:27.718Z,26.10
2022-09-04T16:12:03.442Z,25.60
2022-09-04T16:15:00.106Z,25.60
2022-09-04T16:17:41.749Z,25.70
2022-09-04T16:20:14.285Z,25.60
2022-09-04T16:22:49.038Z,25.50
2022-09-04T16:25:19.189Z,25.50
2022-09-04T16:28:02.775Z,25.50
2022-09-04T16:30:36.927Z,25.30
2022-09-04T16:33:12.875Z,25.20
2022-09-04T16:35:49.341Z,25.10
2022-09-04T16:38:24.166Z,24.90
2022-09-04T16:41:05.969Z,24.70
2022-09-04T16:43:34.193Z,24.60
2022-09-04T16:46:27.394Z,24.50
2022-09-04T16:48:57.840Z,24.50
2022-09-04T16:51:39.765Z,24.40
2022-09-04T16:54:30.739Z,24.20
2022-09-04T16:57:12.240Z,24.20
2022-09-04T16:59:54.033Z,24.10
2022-09-04T17:02:35.736Z,24.00
2022-09-04T17:05:19.347Z,23.90
2022-09-04T17:08:10.555Z,23.90
2022-09-04T17:10:46.332Z,23.60
2022-09-04T17:13:27.593Z,23.40
2022-09-04T17:16:07.965Z,23.20
2022-09-04T17:18:36.645Z,23.10
2022-09-04T17:26:28.084Z,23.00
2022-09-04T17:29:14.376Z,22.90
2022-09-04T17:29:22.445Z,22.70
2022-09-04T17:31:34.315Z,22.50
2022-09-04T17:40:55.090Z,22.10
2022-09-04T17:40:57.004Z,22.30
2022-09-04T17:40:57.404Z,22.00
2022-09-04T17:56:28.069Z,21.10
2022-09-04T17:59:10.096Z,20.90
2022-09-04T18:01:53.688Z,20.80
2022-09-04T18:04:49.000Z,20.60
2022-09-04T18:08:09.338Z,20.40
2022-09-04T18:10:52.004Z,20.30
2022-09-04T18:13:36.684Z,20.10
2022-09-04T18:16:19.749Z,20.00
2022-09-04T18:18:50.836Z,20.00
2022-09-04T18:21:41.019Z,19.90
2022-09-04T18:24:11.987Z,19.70
2022-09-04T18:26:55.683Z,19.70
2022-09-04T18:33:23.932Z,19.60
2022-09-04T18:37:10.821Z,19.40
2022-09-04T18:37:21.500Z,19.40
2022-09-04T18:39:08.484Z,19.30
2022-09-04T18:49:57.469Z,19.20
2022-09-04T18:50:32.333Z,19.20
2022-09-04T18:50:43.188Z,19.20
2022-09-04T18:51:21.240Z,19.10
2022-09-04T18:53:58.083Z,19.10
2022-09-04T18:56:41.404Z,19.10
2022-09-04T18:59:21.120Z,19.10
2022-09-04T19:02:04.421Z,19.00
2022-09-04T19:04:52.125Z,18.90
2022-09-04T19:07:46.022Z,18.90
2022-09-04T19:10:28.067Z,18.80
2022-09-04T19:13:12.199Z,18.80
2022-09-04T19:16:05.714Z,18.80
2022-09-04T19:18:43.393Z,18.70
2022-09-04T19:21:14.797Z,18.60
2022-09-04T19:23:50.059Z,18.50
2022-09-04T19:26:47.730Z,18.50
2022-09-04T19:29:34.664Z,18.50
2022-09-04T20:00:38.398Z,18.00
2022-09-04T20:03:36.542Z,17.90
2022-09-04T20:06:29.984Z,17.60
2022-09-04T20:09:14.820Z,17.70
2022-09-04T20:11:47.815Z,17.70
2022-09-04T20:14:29.574Z,17.70
2022-09-04T20:17:14.881Z,17.60
2022-09-04T20:19:47.756Z,17.60
2022-09-04T20:22:36.106Z,17.50
2022-09-04T20:25:27.426Z,17.40
2022-09-04T20:28:10.928Z,17.30
2022-09-04T20:30:43.640Z,17.20
2022-09-04T20:35:54.250Z,17.10
2022-09-04T20:38:42.462Z,17.10
2022-09-04T20:41:33.249Z,17.10
2022-09-04T20:44:25.240Z,17.00
2022-09-04T20:52:42.641Z,16.90
2022-09-04T20:52:53.303Z,16.80
2022-09-04T20:53:40.175Z,16.80
2022-09-04T20:56:59.580Z,16.70
2022-09-04T21:03:15.153Z,16.60
2022-09-04T21:03:20.863Z,16.60
2022-09-04T21:06:04.305Z,16.70
2022-09-04T21:08:54.671Z,16.80
2022-09-04T21:11:41.953Z,16.70
2022-09-04T21:14:19.640Z,16.70
2022-09-04T21:17:18.757Z,16.70
2022-09-04T21:20:23.317Z,16.60
2022-09-04T21:22:58.260Z,16.60
2022-09-04T21:25:33.736Z,16.40
2022-09-04T21:28:15.803Z,16.40
2022-09-04T21:30:54.349Z,16.40
2022-09-04T21:33:34.550Z,16.30
2022-09-04T21:36:25.366Z,16.40
2022-09-04T21:39:27.389Z,16.30
2022-09-04T21:42:31.240Z,16.30
2022-09-04T21:45:40.414Z,16.20
2022-09-04T21:48:36.153Z,16.20
2022-09-04T21:51:34.293Z,16.10
2022-09-04T22:02:41.702Z,15.90
2022-09-04T22:03:34.934Z,15.90
2022-09-04T22:06:18.998Z,15.80
2022-09-04T22:13:29.798Z,15.80
2022-09-04T22:13:42.735Z,15.80
2022-09-04T22:15:17.478Z,15.70
2022-09-04T22:18:18.188Z,15.70
2022-09-04T22:21:35.363Z,15.70
2022-09-04T22:24:11.264Z,15.70
2022-09-04T22:27:29.332Z,15.70
2022-09-04T22:30:18.772Z,15.60
2022-09-04T22:33:25.325Z,15.60
2022-09-04T22:36:28.294Z,15.50
2022-09-04T22:39:07.547Z,15.50
2022-09-04T22:42:20.633Z,15.50
2022-09-04T22:45:14.575Z,15.50
2022-09-04T22:48:10.337Z,15.40
2022-09-04T22:50:56.356Z,15.40
2022-09-04T22:53:44.382Z,15.40
2022-09-04T22:56:24.806Z,15.30
2022-09-04T22:59:25.589Z,15.30
2022-09-04T23:02:18.237Z,15.30
2022-09-04T23:04:58.821Z,15.20
2022-09-04T23:13:03.384Z,15.20
2022-09-04T23:13:50.172Z,15.20
2022-09-04T23:14:02.133Z,15.10
2022-09-04T23:16:46.737Z,15.10
2022-09-04T23:24:15.144Z,15.00
2022-09-04T23:26:48.658Z,15.00
2022-09-04T23:26:49.020Z,15.00
2022-09-04T23:28:53.810Z,15.00
2022-09-04T23:31:40.467Z,15.00
2022-09-04T23:34:12.978Z,15.00
2022-09-04T23:37:22.192Z,15.00
2022-09-04T23:40:27.119Z,14.90
2022-09-04T23:43:21.495Z,15.00
2022-09-04T23:46:01.539Z,14.90
2022-09-04T23:48:46.932Z,14.90
2022-09-04T23:51:46.946Z,14.90
2022-09-04T23:54:41.847Z,14.90
2022-09-04T23:57:27.869Z,14.80
